sensor_id;sensor_type;location;lat;lon;timestamp;temperature;humidity
65374;SHT31;52070;53.760;9.678;2023-08-24T00:02:00;16.87;88.20
65374;SHT31;52070;53.760;9.678;2023-08-24T00:04:27;16.87;88.19
65374;SHT31;52070;53.760;9.678;2023-08-24T00:06:54;16.81;88.32
65374;SHT31;52070;53.760;9.678;2023-08-24T00:09:22;16.77;88.24
65374;SHT31;52070;53.760;9.678;2023-08-24T00:11:49;16.73;88.33
65374;SHT31;52070;53.760;9.678;2023-08-24T00:14:17;16.66;88.53
65374;SHT31;52070;53.760;9.678;2023-08-24T00:16:44;16.53;88.74
65374;SHT31;52070;53.760;9.678;2023-08-24T00:19:11;16.55;88.94
65374;SHT31;52070;53.760;9.678;2023-08-24T00:21:38;16.53;88.84
65374;SHT31;52070;53.760;9.678;2023-08-24T00:24:05;16.49;88.94
65374;SHT31;52070;53.760;9.678;2023-08-24T00:26:32;16.46;88.84
65374;SHT31;52070;53.760;9.678;2023-08-24T00:29:00;16.46;89.00
65374;SHT31;52070;53.760;9.678;2023-08-24T00:31:28;16.51;88.97
65374;SHT31;52070;53.760;9.678;2023-08-24T00:33:55;16.48;88.68
65374;SHT31;52070;53.760;9.678;2023-08-24T00:36:22;16.42;88.67
65374;SHT31;52070;53.760;9.678;2023-08-24T00:38:49;16.42;88.51
65374;SHT31;52070;53.760;9.678;2023-08-24T00:41:18;16.41;88.43
65374;SHT31;52070;53.760;9.678;2023-08-24T00:43:47;16.29;88.55
65374;SHT31;52070;53.760;9.678;2023-08-24T00:46:16;16.30;88.69
65374;SHT31;52070;53.760;9.678;2023-08-24T00:48:44;16.32;88.55
65374;SHT31;52070;53.760;9.678;2023-08-24T00:51:11;16.32;88.48
65374;SHT31;52070;53.760;9.678;2023-08-24T00:53:38;16.26;88.20
65374;SHT31;52070;53.760;9.678;2023-08-24T00:56:05;16.14;88.41
65374;SHT31;52070;53.760;9.678;2023-08-24T00:58:33;16.19;88.56
65374;SHT31;52070;53.760;9.678;2023-08-24T01:01:00;16.16;88.49
65374;SHT31;52070;53.760;9.678;2023-08-24T01:03:28;16.11;88.49
65374;SHT31;52070;53.760;9.678;2023-08-24T01:05:57;16.09;88.55
65374;SHT31;52070;53.760;9.678;2023-08-24T01:08:24;16.08;88.55
65374;SHT31;52070;53.760;9.678;2023-08-24T01:10:59;16.14;88.42
65374;SHT31;52070;53.760;9.678;2023-08-24T01:13:31;16.01;88.33
65374;SHT31;52070;53.760;9.678;2023-08-24T01:16:04;16.02;88.40
65374;SHT31;52070;53.760;9.678;2023-08-24T01:18:34;16.02;88.27
65374;SHT31;52070;53.760;9.678;2023-08-24T01:21:03;15.95;88.29
65374;SHT31;52070;53.760;9.678;2023-08-24T01:23:37;15.87;88.56
65374;SHT31;52070;53.760;9.678;2023-08-24T01:26:11;15.91;88.53
65374;SHT31;52070;53.760;9.678;2023-08-24T01:28:38;15.85;88.39
65374;SHT31;52070;53.760;9.678;2023-08-24T01:31:06;15.84;88.43
65374;SHT31;52070;53.760;9.678;2023-08-24T01:33:33;15.74;88.50
65374;SHT31;52070;53.760;9.678;2023-08-24T01:36:00;15.80;88.60
65374;SHT31;52070;53.760;9.678;2023-08-24T01:38:28;15.75;88.41
65374;SHT31;52070;53.760;9.678;2023-08-24T01:40:59;15.65;88.57
65374;SHT31;52070;53.760;9.678;2023-08-24T01:43:35;15.53;88.84
65374;SHT31;52070;53.760;9.678;2023-08-24T01:46:04;15.53;89.10
65374;SHT31;52070;53.760;9.678;2023-08-24T01:48:31;15.58;88.87
65374;SHT31;52070;53.760;9.678;2023-08-24T01:50:59;15.54;88.65
65374;SHT31;52070;53.760;9.678;2023-08-24T01:53:29;15.44;88.69
65374;SHT31;52070;53.760;9.678;2023-08-24T01:55:56;15.36;88.91
65374;SHT31;52070;53.760;9.678;2023-08-24T01:58:23;15.27;89.62
65374;SHT31;52070;53.760;9.678;2023-08-24T02:00:52;15.26;89.73
65374;SHT31;52070;53.760;9.678;2023-08-24T02:03:18;15.24;89.99
65374;SHT31;52070;53.760;9.678;2023-08-24T02:05:45;15.14;90.39
65374;SHT31;52070;53.760;9.678;2023-08-24T02:08:12;15.22;90.04
65374;SHT31;52070;53.760;9.678;2023-08-24T02:10:39;15.11;90.06
65374;SHT31;52070;53.760;9.678;2023-08-24T02:13:06;15.09;90.11
65374;SHT31;52070;53.760;9.678;2023-08-24T02:15:33;15.02;90.26
65374;SHT31;52070;53.760;9.678;2023-08-24T02:18:02;15.18;89.98
65374;SHT31;52070;53.760;9.678;2023-08-24T02:20:29;15.13;89.53
65374;SHT31;52070;53.760;9.678;2023-08-24T02:22:56;15.04;89.69
65374;SHT31;52070;53.760;9.678;2023-08-24T02:25:22;15.11;89.89
65374;SHT31;52070;53.760;9.678;2023-08-24T02:27:49;15.11;89.77
65374;SHT31;52070;53.760;9.678;2023-08-24T02:30:17;15.09;89.63
65374;SHT31;52070;53.760;9.678;2023-08-24T02:32:44;15.10;89.43
65374;SHT31;52070;53.760;9.678;2023-08-24T02:35:12;15.13;89.39
65374;SHT31;52070;53.760;9.678;2023-08-24T02:37:39;15.02;89.37
65374;SHT31;52070;53.760;9.678;2023-08-24T02:40:07;15.09;89.34
65374;SHT31;52070;53.760;9.678;2023-08-24T02:42:35;15.20;89.17
65374;SHT31;52070;53.760;9.678;2023-08-24T02:45:02;15.19;88.93
65374;SHT31;52070;53.760;9.678;2023-08-24T02:47:30;15.19;88.82
65374;SHT31;52070;53.760;9.678;2023-08-24T02:49:56;15.11;89.09
65374;SHT31;52070;53.760;9.678;2023-08-24T02:52:25;15.06;89.28
65374;SHT31;52070;53.760;9.678;2023-08-24T02:54:52;15.02;89.42
65374;SHT31;52070;53.760;9.678;2023-08-24T02:57:18;14.98;89.66
65374;SHT31;52070;53.760;9.678;2023-08-24T02:59:45;14.98;89.75
65374;SHT31;52070;53.760;9.678;2023-08-24T03:02:12;14.95;89.75
65374;SHT31;52070;53.760;9.678;2023-08-24T03:04:39;15.04;89.58
65374;SHT31;52070;53.760;9.678;2023-08-24T03:07:06;14.95;89.54
65374;SHT31;52070;53.760;9.678;2023-08-24T03:09:37;14.96;89.94
65374;SHT31;52070;53.760;9.678;2023-08-24T03:12:05;14.95;89.77
65374;SHT31;52070;53.760;9.678;2023-08-24T03:14:31;14.93;89.72
65374;SHT31;52070;53.760;9.678;2023-08-24T03:16:58;14.99;89.72
65374;SHT31;52070;53.760;9.678;2023-08-24T03:19:25;14.98;89.64
65374;SHT31;52070;53.760;9.678;2023-08-24T03:21:52;15.02;89.48
65374;SHT31;52070;53.760;9.678;2023-08-24T03:24:19;14.93;89.38
65374;SHT31;52070;53.760;9.678;2023-08-24T03:26:47;14.83;89.58
65374;SHT31;52070;53.760;9.678;2023-08-24T03:29:14;14.85;89.67
65374;SHT31;52070;53.760;9.678;2023-08-24T03:31:41;14.95;89.44
65374;SHT31;52070;53.760;9.678;2023-08-24T03:34:08;14.86;89.17
65374;SHT31;52070;53.760;9.678;2023-08-24T03:36:36;14.80;89.34
65374;SHT31;52070;53.760;9.678;2023-08-24T03:39:03;14.88;89.35
65374;SHT31;52070;53.760;9.678;2023-08-24T03:41:30;14.90;89.12
65374;SHT31;52070;53.760;9.678;2023-08-24T03:43:59;14.88;89.04
65374;SHT31;52070;53.760;9.678;2023-08-24T03:46:26;14.82;89.15
65374;SHT31;52070;53.760;9.678;2023-08-24T03:48:53;14.85;89.22
65374;SHT31;52070;53.760;9.678;2023-08-24T03:51:19;14.75;89.25
65374;SHT31;52070;53.760;9.678;2023-08-24T03:53:46;14.69;89.55
65374;SHT31;52070;53.760;9.678;2023-08-24T03:56:13;14.66;89.68
65374;SHT31;52070;53.760;9.678;2023-08-24T03:58:40;14.62;89.81
65374;SHT31;52070;53.760;9.678;2023-08-24T04:01:11;14.61;89.70
65374;SHT31;52070;53.760;9.678;2023-08-24T04:03:38;14.65;89.54
65374;SHT31;52070;53.760;9.678;2023-08-24T04:06:05;14.69;89.49
65374;SHT31;52070;53.760;9.678;2023-08-24T04:08:33;14.55;89.82
65374;SHT31;52070;53.760;9.678;2023-08-24T04:11:00;14.65;89.83
65374;SHT31;52070;53.760;9.678;2023-08-24T04:13:27;14.64;89.38
65374;SHT31;52070;53.760;9.678;2023-08-24T04:15:54;14.52;89.35
65374;SHT31;52070;53.760;9.678;2023-08-24T04:18:23;14.52;89.68
65374;SHT31;52070;53.760;9.678;2023-08-24T04:20:51;14.51;89.77
65374;SHT31;52070;53.760;9.678;2023-08-24T04:23:23;14.49;89.57
65374;SHT31;52070;53.760;9.678;2023-08-24T04:25:50;14.62;89.52
65374;SHT31;52070;53.760;9.678;2023-08-24T04:28:17;14.58;89.15
65374;SHT31;52070;53.760;9.678;2023-08-24T04:30:49;14.49;89.22
65374;SHT31;52070;53.760;9.678;2023-08-24T04:33:17;14.54;89.30
65374;SHT31;52070;53.760;9.678;2023-08-24T04:35:46;14.44;89.18
65374;SHT31;52070;53.760;9.678;2023-08-24T04:38:14;14.56;89.19
65374;SHT31;52070;53.760;9.678;2023-08-24T04:40:49;14.64;88.88
65374;SHT31;52070;53.760;9.678;2023-08-24T04:43:16;14.61;88.86
65374;SHT31;52070;53.760;9.678;2023-08-24T04:45:45;14.59;88.95
65374;SHT31;52070;53.760;9.678;2023-08-24T04:48:12;14.46;89.04
65374;SHT31;52070;53.760;9.678;2023-08-24T04:50:39;14.32;89.68
65374;SHT31;52070;53.760;9.678;2023-08-24T04:53:07;14.28;89.89
65374;SHT31;52070;53.760;9.678;2023-08-24T04:55:34;14.38;89.79
65374;SHT31;52070;53.760;9.678;2023-08-24T04:58:01;14.41;89.56
65374;SHT31;52070;53.760;9.678;2023-08-24T05:00:28;14.34;89.68
65374;SHT31;52070;53.760;9.678;2023-08-24T05:02:58;14.32;89.97
65374;SHT31;52070;53.760;9.678;2023-08-24T05:05:25;14.36;89.95
65374;SHT31;52070;53.760;9.678;2023-08-24T05:07:53;14.26;90.47
65374;SHT31;52070;53.760;9.678;2023-08-24T05:10:22;14.21;90.69
65374;SHT31;52070;53.760;9.678;2023-08-24T05:12:48;14.15;90.89
65374;SHT31;52070;53.760;9.678;2023-08-24T05:15:16;14.20;91.13
65374;SHT31;52070;53.760;9.678;2023-08-24T05:17:43;14.18;91.36
65374;SHT31;52070;53.760;9.678;2023-08-24T05:20:10;14.10;91.32
65374;SHT31;52070;53.760;9.678;2023-08-24T05:22:37;14.17;91.26
65374;SHT31;52070;53.760;9.678;2023-08-24T05:25:05;14.13;91.36
65374;SHT31;52070;53.760;9.678;2023-08-24T05:27:34;14.13;91.56
65374;SHT31;52070;53.760;9.678;2023-08-24T05:30:01;14.15;91.83
65374;SHT31;52070;53.760;9.678;2023-08-24T05:32:28;14.21;92.01
65374;SHT31;52070;53.760;9.678;2023-08-24T05:34:54;14.24;92.10
65374;SHT31;52070;53.760;9.678;2023-08-24T05:37:21;14.34;92.32
65374;SHT31;52070;53.760;9.678;2023-08-24T05:39:51;14.35;92.47
65374;SHT31;52070;53.760;9.678;2023-08-24T05:42:18;14.45;92.58
65374;SHT31;52070;53.760;9.678;2023-08-24T05:44:46;14.54;92.69
65374;SHT31;52070;53.760;9.678;2023-08-24T05:47:13;14.66;92.79
65374;SHT31;52070;53.760;9.678;2023-08-24T05:49:40;14.71;92.85
65374;SHT31;52070;53.760;9.678;2023-08-24T05:52:07;14.76;92.95
65374;SHT31;52070;53.760;9.678;2023-08-24T05:54:36;14.83;92.98
65374;SHT31;52070;53.760;9.678;2023-08-24T05:57:03;14.95;93.06
65374;SHT31;52070;53.760;9.678;2023-08-24T05:59:30;15.02;93.16
65374;SHT31;52070;53.760;9.678;2023-08-24T06:01:58;15.14;93.36
65374;SHT31;52070;53.760;9.678;2023-08-24T06:04:25;15.24;93.70
65374;SHT31;52070;53.760;9.678;2023-08-24T06:06:52;15.34;93.78
65374;SHT31;52070;53.760;9.678;2023-08-24T06:09:19;15.47;93.78
65374;SHT31;52070;53.760;9.678;2023-08-24T06:11:47;15.63;93.90
65374;SHT31;52070;53.760;9.678;2023-08-24T06:14:14;15.74;93.94
65374;SHT31;52070;53.760;9.678;2023-08-24T06:16:41;15.83;93.94
65374;SHT31;52070;53.760;9.678;2023-08-24T06:19:09;15.92;93.97
65374;SHT31;52070;53.760;9.678;2023-08-24T06:21:36;16.01;93.98
65374;SHT31;52070;53.760;9.678;2023-08-24T06:24:03;16.09;93.99
65374;SHT31;52070;53.760;9.678;2023-08-24T06:26:30;16.16;93.99
65374;SHT31;52070;53.760;9.678;2023-08-24T06:28:57;16.26;94.00
65374;SHT31;52070;53.760;9.678;2023-08-24T06:31:24;16.39;93.94
65374;SHT31;52070;53.760;9.678;2023-08-24T06:33:51;16.42;93.72
65374;SHT31;52070;53.760;9.678;2023-08-24T06:36:20;16.46;93.49
65374;SHT31;52070;53.760;9.678;2023-08-24T06:38:47;16.52;93.21
65374;SHT31;52070;53.760;9.678;2023-08-24T06:41:13;16.56;93.04
65374;SHT31;52070;53.760;9.678;2023-08-24T06:43:40;16.67;93.00
65374;SHT31;52070;53.760;9.678;2023-08-24T06:46:07;16.75;92.91
65374;SHT31;52070;53.760;9.678;2023-08-24T06:48:34;16.80;92.82
65374;SHT31;52070;53.760;9.678;2023-08-24T06:51:03;16.81;92.56
65374;SHT31;52070;53.760;9.678;2023-08-24T06:53:31;16.86;92.37
65374;SHT31;52070;53.760;9.678;2023-08-24T06:55:58;16.90;92.18
65374;SHT31;52070;53.760;9.678;2023-08-24T06:58:25;16.93;91.91
65374;SHT31;52070;53.760;9.678;2023-08-24T07:00:52;16.97;91.47
65374;SHT31;52070;53.760;9.678;2023-08-24T07:03:23;17.13;91.25
65374;SHT31;52070;53.760;9.678;2023-08-24T07:05:51;17.19;91.09
65374;SHT31;52070;53.760;9.678;2023-08-24T07:08:17;17.27;90.98
65374;SHT31;52070;53.760;9.678;2023-08-24T07:10:46;17.24;90.61
65374;SHT31;52070;53.760;9.678;2023-08-24T07:13:13;17.24;90.48
65374;SHT31;52070;53.760;9.678;2023-08-24T07:15:40;17.27;90.34
65374;SHT31;52070;53.760;9.678;2023-08-24T07:18:06;17.28;90.25
65374;SHT31;52070;53.760;9.678;2023-08-24T07:20:35;17.35;90.13
65374;SHT31;52070;53.760;9.678;2023-08-24T07:23:02;17.38;90.05
65374;SHT31;52070;53.760;9.678;2023-08-24T07:25:29;17.40;88.98
65374;SHT31;52070;53.760;9.678;2023-08-24T07:27:57;17.42;87.37
65374;SHT31;52070;53.760;9.678;2023-08-24T07:30:25;17.64;86.95
65374;SHT31;52070;53.760;9.678;2023-08-24T07:32:52;17.68;87.05
65374;SHT31;52070;53.760;9.678;2023-08-24T07:35:20;17.65;86.91
65374;SHT31;52070;53.760;9.678;2023-08-24T07:37:50;17.82;87.12
65374;SHT31;52070;53.760;9.678;2023-08-24T07:40:17;17.89;85.66
65374;SHT31;52070;53.760;9.678;2023-08-24T07:42:44;17.85;84.82
65374;SHT31;52070;53.760;9.678;2023-08-24T07:45:13;17.91;85.52
65374;SHT31;52070;53.760;9.678;2023-08-24T07:47:40;17.94;86.35
65374;SHT31;52070;53.760;9.678;2023-08-24T07:50:08;17.92;85.91
65374;SHT31;52070;53.760;9.678;2023-08-24T07:52:36;17.91;85.84
65374;SHT31;52070;53.760;9.678;2023-08-24T07:55:09;17.96;85.92
65374;SHT31;52070;53.760;9.678;2023-08-24T07:57:36;17.98;86.48
65374;SHT31;52070;53.760;9.678;2023-08-24T08:00:05;18.06;86.18
65374;SHT31;52070;53.760;9.678;2023-08-24T08:02:34;18.16;86.01
65374;SHT31;52070;53.760;9.678;2023-08-24T08:05:03;18.17;85.28
65374;SHT31;52070;53.760;9.678;2023-08-24T08:07:32;18.19;85.01
65374;SHT31;52070;53.760;9.678;2023-08-24T08:09:59;18.23;84.02
65374;SHT31;52070;53.760;9.678;2023-08-24T08:12:26;18.30;84.08
65374;SHT31;52070;53.760;9.678;2023-08-24T08:14:53;18.45;83.04
65374;SHT31;52070;53.760;9.678;2023-08-24T08:17:20;18.60;82.84
65374;SHT31;52070;53.760;9.678;2023-08-24T08:19:54;18.59;82.25
65374;SHT31;52070;53.760;9.678;2023-08-24T08:22:21;18.59;82.69
65374;SHT31;52070;53.760;9.678;2023-08-24T08:24:48;18.63;82.91
65374;SHT31;52070;53.760;9.678;2023-08-24T08:27:15;18.66;80.20
65374;SHT31;52070;53.760;9.678;2023-08-24T08:29:42;18.67;80.68
65374;SHT31;52070;53.760;9.678;2023-08-24T08:32:09;18.70;80.08
65374;SHT31;52070;53.760;9.678;2023-08-24T08:34:38;18.67;79.50
65374;SHT31;52070;53.760;9.678;2023-08-24T08:37:06;18.81;80.47
65374;SHT31;52070;53.760;9.678;2023-08-24T08:39:33;18.87;80.72
65374;SHT31;52070;53.760;9.678;2023-08-24T08:42:01;18.97;78.46
65374;SHT31;52070;53.760;9.678;2023-08-24T08:44:30;19.06;76.89
65374;SHT31;52070;53.760;9.678;2023-08-24T08:46:58;19.10;76.62
65374;SHT31;52070;53.760;9.678;2023-08-24T08:49:25;19.12;74.96
65374;SHT31;52070;53.760;9.678;2023-08-24T08:51:52;19.11;75.79
65374;SHT31;52070;53.760;9.678;2023-08-24T08:54:21;19.12;74.06
65374;SHT31;52070;53.760;9.678;2023-08-24T08:56:48;19.12;76.18
65374;SHT31;52070;53.760;9.678;2023-08-24T08:59:15;19.11;74.64
65374;SHT31;52070;53.760;9.678;2023-08-24T09:01:44;19.15;75.45
65374;SHT31;52070;53.760;9.678;2023-08-24T09:04:13;19.22;74.78
65374;SHT31;52070;53.760;9.678;2023-08-24T09:06:40;19.32;74.58
65374;SHT31;52070;53.760;9.678;2023-08-24T09:09:07;19.48;75.21
65374;SHT31;52070;53.760;9.678;2023-08-24T09:11:36;19.57;73.17
65374;SHT31;52070;53.760;9.678;2023-08-24T09:14:04;19.78;73.45
65374;SHT31;52070;53.760;9.678;2023-08-24T09:16:32;19.92;74.10
65374;SHT31;52070;53.760;9.678;2023-08-24T09:18:59;20.02;72.80
65374;SHT31;52070;53.760;9.678;2023-08-24T09:21:26;20.10;72.89
65374;SHT31;52070;53.760;9.678;2023-08-24T09:23:54;20.19;70.21
65374;SHT31;52070;53.760;9.678;2023-08-24T09:26:27;20.16;71.73
65374;SHT31;52070;53.760;9.678;2023-08-24T09:28:57;20.23;68.72
65374;SHT31;52070;53.760;9.678;2023-08-24T09:31:34;20.33;71.53
65374;SHT31;52070;53.760;9.678;2023-08-24T09:34:02;20.44;68.04
65374;SHT31;52070;53.760;9.678;2023-08-24T09:36:31;20.54;68.69
65374;SHT31;52070;53.760;9.678;2023-08-24T09:38:58;20.67;69.42
65374;SHT31;52070;53.760;9.678;2023-08-24T09:41:37;20.84;70.34
65374;SHT31;52070;53.760;9.678;2023-08-24T09:44:05;21.05;68.69
65374;SHT31;52070;53.760;9.678;2023-08-24T09:46:32;21.27;70.09
65374;SHT31;52070;53.760;9.678;2023-08-24T09:48:59;21.43;67.74
65374;SHT31;52070;53.760;9.678;2023-08-24T09:51:27;21.67;68.86
65374;SHT31;52070;53.760;9.678;2023-08-24T09:53:58;21.89;67.35
65374;SHT31;52070;53.760;9.678;2023-08-24T09:56:25;21.99;68.97
65374;SHT31;52070;53.760;9.678;2023-08-24T09:58:54;22.09;65.84
65374;SHT31;52070;53.760;9.678;2023-08-24T10:01:24;22.09;61.17
65374;SHT31;52070;53.760;9.678;2023-08-24T10:03:51;22.18;62.19
65374;SHT31;52070;53.760;9.678;2023-08-24T10:06:19;22.17;62.83
65374;SHT31;52070;53.760;9.678;2023-08-24T10:08:52;22.24;61.70
65374;SHT31;52070;53.760;9.678;2023-08-24T10:11:26;22.30;60.21
65374;SHT31;52070;53.760;9.678;2023-08-24T10:13:59;22.40;60.72
65374;SHT31;52070;53.760;9.678;2023-08-24T10:16:28;22.51;61.28
65374;SHT31;52070;53.760;9.678;2023-08-24T10:18:56;22.79;63.93
65374;SHT31;52070;53.760;9.678;2023-08-24T10:21:24;22.97;62.40
65374;SHT31;52070;53.760;9.678;2023-08-24T10:23:52;23.22;61.26
65374;SHT31;52070;53.760;9.678;2023-08-24T10:26:20;23.52;63.44
65374;SHT31;52070;53.760;9.678;2023-08-24T10:28:48;23.86;65.86
65374;SHT31;52070;53.760;9.678;2023-08-24T10:31:16;24.14;61.61
65374;SHT31;52070;53.760;9.678;2023-08-24T10:33:45;24.18;59.31
65374;SHT31;52070;53.760;9.678;2023-08-24T10:36:13;24.20;59.72
65374;SHT31;52070;53.760;9.678;2023-08-24T10:38:41;24.35;61.41
65374;SHT31;52070;53.760;9.678;2023-08-24T10:41:09;24.37;59.04
65374;SHT31;52070;53.760;9.678;2023-08-24T10:43:39;24.31;59.02
65374;SHT31;52070;53.760;9.678;2023-08-24T10:46:12;24.92;67.34
65374;SHT31;52070;53.760;9.678;2023-08-24T10:48:58;25.19;60.49
65374;SHT31;52070;53.760;9.678;2023-08-24T10:51:26;25.40;59.95
65374;SHT31;52070;53.760;9.678;2023-08-24T10:53:56;25.42;57.22
65374;SHT31;52070;53.760;9.678;2023-08-24T10:56:32;25.54;59.90
65374;SHT31;52070;53.760;9.678;2023-08-24T10:59:13;25.76;55.98
65374;SHT31;52070;53.760;9.678;2023-08-24T11:01:41;25.59;54.96
65374;SHT31;52070;53.760;9.678;2023-08-24T11:04:10;25.49;57.90
65374;SHT31;52070;53.760;9.678;2023-08-24T11:06:51;25.66;55.04
65374;SHT31;52070;53.760;9.678;2023-08-24T11:09:19;25.25;55.70
65374;SHT31;52070;53.760;9.678;2023-08-24T11:11:55;25.43;56.33
65374;SHT31;52070;53.760;9.678;2023-08-24T11:14:23;25.56;59.56
65374;SHT31;52070;53.760;9.678;2023-08-24T11:16:52;26.01;57.63
65374;SHT31;52070;53.760;9.678;2023-08-24T11:19:21;26.10;55.00
65374;SHT31;52070;53.760;9.678;2023-08-24T11:21:48;25.76;52.59
65374;SHT31;52070;53.760;9.678;2023-08-24T11:24:16;24.99;52.89
65374;SHT31;52070;53.760;9.678;2023-08-24T11:26:44;24.89;55.33
65374;SHT31;52070;53.760;9.678;2023-08-24T11:29:12;25.26;53.67
65374;SHT31;52070;53.760;9.678;2023-08-24T11:31:39;25.81;54.66
65374;SHT31;52070;53.760;9.678;2023-08-24T11:34:07;25.86;53.15
65374;SHT31;52070;53.760;9.678;2023-08-24T11:36:47;25.74;53.08
65374;SHT31;52070;53.760;9.678;2023-08-24T11:39:15;25.94;51.84
65374;SHT31;52070;53.760;9.678;2023-08-24T11:41:43;25.90;54.59
65374;SHT31;52070;53.760;9.678;2023-08-24T11:44:11;25.98;54.60
65374;SHT31;52070;53.760;9.678;2023-08-24T11:46:38;26.01;55.11
65374;SHT31;52070;53.760;9.678;2023-08-24T11:49:05;25.87;55.43
65374;SHT31;52070;53.760;9.678;2023-08-24T11:51:32;25.67;57.57
65374;SHT31;52070;53.760;9.678;2023-08-24T11:54:02;25.47;54.89
65374;SHT31;52070;53.760;9.678;2023-08-24T11:56:30;25.39;56.71
65374;SHT31;52070;53.760;9.678;2023-08-24T11:58:57;25.47;58.67
65374;SHT31;52070;53.760;9.678;2023-08-24T12:01:23;25.22;58.54
65374;SHT31;52070;53.760;9.678;2023-08-24T12:03:52;24.88;55.06
65374;SHT31;52070;53.760;9.678;2023-08-24T12:06:19;25.02;58.42
65374;SHT31;52070;53.760;9.678;2023-08-24T12:08:47;25.18;59.65
65374;SHT31;52070;53.760;9.678;2023-08-24T12:11:18;25.38;57.29
65374;SHT31;52070;53.760;9.678;2023-08-24T12:13:47;25.26;59.26
65374;SHT31;52070;53.760;9.678;2023-08-24T12:16:15;25.28;60.41
65374;SHT31;52070;53.760;9.678;2023-08-24T12:18:54;25.28;60.74
65374;SHT31;52070;53.760;9.678;2023-08-24T12:21:21;25.20;59.02
65374;SHT31;52070;53.760;9.678;2023-08-24T12:23:55;25.45;55.76
65374;SHT31;52070;53.760;9.678;2023-08-24T12:26:24;25.43;56.68
65374;SHT31;52070;53.760;9.678;2023-08-24T12:28:51;25.43;60.31
65374;SHT31;52070;53.760;9.678;2023-08-24T12:31:19;25.57;57.72
65374;SHT31;52070;53.760;9.678;2023-08-24T12:33:58;25.70;58.05
65374;SHT31;52070;53.760;9.678;2023-08-24T12:36:25;25.69;57.44
65374;SHT31;52070;53.760;9.678;2023-08-24T12:38:52;25.71;57.86
65374;SHT31;52070;53.760;9.678;2023-08-24T12:41:19;25.53;57.43
65374;SHT31;52070;53.760;9.678;2023-08-24T12:43:47;25.57;58.58
65374;SHT31;52070;53.760;9.678;2023-08-24T12:46:14;25.53;57.24
65374;SHT31;52070;53.760;9.678;2023-08-24T12:48:41;25.62;56.39
65374;SHT31;52070;53.760;9.678;2023-08-24T12:51:08;25.47;58.09
65374;SHT31;52070;53.760;9.678;2023-08-24T12:53:35;25.53;59.63
65374;SHT31;52070;53.760;9.678;2023-08-24T12:56:02;25.76;55.60
65374;SHT31;52070;53.760;9.678;2023-08-24T12:58:29;25.91;57.25
65374;SHT31;52070;53.760;9.678;2023-08-24T13:00:58;26.01;58.16
65374;SHT31;52070;53.760;9.678;2023-08-24T13:03:24;26.37;61.38
65374;SHT31;52070;53.760;9.678;2023-08-24T13:05:51;26.64;57.29
65374;SHT31;52070;53.760;9.678;2023-08-24T13:08:19;26.86;54.60
65374;SHT31;52070;53.760;9.678;2023-08-24T13:10:46;27.15;52.68
65374;SHT31;52070;53.760;9.678;2023-08-24T13:13:13;27.27;54.29
65374;SHT31;52070;53.760;9.678;2023-08-24T13:15:39;27.36;56.17
65374;SHT31;52070;53.760;9.678;2023-08-24T13:18:08;27.42;53.42
65374;SHT31;52070;53.760;9.678;2023-08-24T13:20:35;27.36;51.79
65374;SHT31;52070;53.760;9.678;2023-08-24T13:23:02;27.35;54.48
65374;SHT31;52070;53.760;9.678;2023-08-24T13:25:29;27.32;53.90
65374;SHT31;52070;53.760;9.678;2023-08-24T13:27:56;27.30;53.89
65374;SHT31;52070;53.760;9.678;2023-08-24T13:30:23;27.25;52.84
65374;SHT31;52070;53.760;9.678;2023-08-24T13:32:50;27.43;55.55
65374;SHT31;52070;53.760;9.678;2023-08-24T13:35:18;27.83;50.90
65374;SHT31;52070;53.760;9.678;2023-08-24T13:37:47;27.90;51.97
65374;SHT31;52070;53.760;9.678;2023-08-24T13:40:14;28.02;51.66
65374;SHT31;52070;53.760;9.678;2023-08-24T13:42:41;27.94;54.14
65374;SHT31;52070;53.760;9.678;2023-08-24T13:45:08;28.02;51.49
65374;SHT31;52070;53.760;9.678;2023-08-24T13:47:35;28.01;52.70
65374;SHT31;52070;53.760;9.678;2023-08-24T13:50:02;28.02;49.94
65374;SHT31;52070;53.760;9.678;2023-08-24T13:52:31;28.04;55.22
65374;SHT31;52070;53.760;9.678;2023-08-24T13:54:57;27.96;52.00
65374;SHT31;52070;53.760;9.678;2023-08-24T13:57:24;27.96;52.52
65374;SHT31;52070;53.760;9.678;2023-08-24T13:59:51;28.12;50.68
65374;SHT31;52070;53.760;9.678;2023-08-24T14:02:18;28.32;53.27
65374;SHT31;52070;53.760;9.678;2023-08-24T14:04:45;28.29;50.44
65374;SHT31;52070;53.760;9.678;2023-08-24T14:07:12;28.37;50.94
65374;SHT31;52070;53.760;9.678;2023-08-24T14:09:41;28.65;50.93
65374;SHT31;52070;53.760;9.678;2023-08-24T14:12:07;28.68;51.41
65374;SHT31;52070;53.760;9.678;2023-08-24T14:14:34;28.73;52.21
65374;SHT31;52070;53.760;9.678;2023-08-24T14:17:02;28.75;53.19
65374;SHT31;52070;53.760;9.678;2023-08-24T14:19:28;28.71;51.16
65374;SHT31;52070;53.760;9.678;2023-08-24T14:21:55;28.55;51.12
65374;SHT31;52070;53.760;9.678;2023-08-24T14:24:23;28.31;50.59
65374;SHT31;52070;53.760;9.678;2023-08-24T14:26:52;28.22;53.95
65374;SHT31;52070;53.760;9.678;2023-08-24T14:29:19;28.14;53.38
65374;SHT31;52070;53.760;9.678;2023-08-24T14:31:45;27.88;53.26
65374;SHT31;52070;53.760;9.678;2023-08-24T14:34:12;27.87;53.16
65374;SHT31;52070;53.760;9.678;2023-08-24T14:36:39;27.60;54.46
65374;SHT31;52070;53.760;9.678;2023-08-24T14:39:06;27.42;53.79
65374;SHT31;52070;53.760;9.678;2023-08-24T14:41:33;27.20;55.87
65374;SHT31;52070;53.760;9.678;2023-08-24T14:44:02;27.02;55.40
65374;SHT31;52070;53.760;9.678;2023-08-24T14:46:29;26.89;55.91
65374;SHT31;52070;53.760;9.678;2023-08-24T14:48:56;26.79;55.96
65374;SHT31;52070;53.760;9.678;2023-08-24T14:51:23;26.75;56.71
65374;SHT31;52070;53.760;9.678;2023-08-24T14:53:50;26.89;56.74
65374;SHT31;52070;53.760;9.678;2023-08-24T14:56:17;26.72;57.03
65374;SHT31;52070;53.760;9.678;2023-08-24T14:58:44;26.61;56.84
65374;SHT31;52070;53.760;9.678;2023-08-24T15:01:12;26.56;57.89
65374;SHT31;52070;53.760;9.678;2023-08-24T15:03:39;26.56;58.78
65374;SHT31;52070;53.760;9.678;2023-08-24T15:06:06;26.51;58.03
65374;SHT31;52070;53.760;9.678;2023-08-24T15:08:34;26.49;58.16
65374;SHT31;52070;53.760;9.678;2023-08-24T15:11:02;26.41;59.32
65374;SHT31;52070;53.760;9.678;2023-08-24T15:13:29;26.30;59.05
65374;SHT31;52070;53.760;9.678;2023-08-24T15:15:57;26.35;60.46
65374;SHT31;52070;53.760;9.678;2023-08-24T15:18:26;26.30;58.60
65374;SHT31;52070;53.760;9.678;2023-08-24T15:20:53;26.16;60.24
65374;SHT31;52070;53.760;9.678;2023-08-24T15:23:22;26.00;58.43
65374;SHT31;52070;53.760;9.678;2023-08-24T15:25:49;25.80;60.16
65374;SHT31;52070;53.760;9.678;2023-08-24T15:28:16;25.74;61.17
65374;SHT31;52070;53.760;9.678;2023-08-24T15:30:43;25.73;61.60
65374;SHT31;52070;53.760;9.678;2023-08-24T15:33:10;25.63;61.27
65374;SHT31;52070;53.760;9.678;2023-08-24T15:35:40;25.57;62.28